Time;durP1;ratioP1;P1;durP2;ratioP2;P2;SDS_P1;SDS_P2;PMS_P1;PMS_P2;Temp;Humidity;BMP_temperature;BMP_pressure;BME280_temperature;BME280_humidity;BME280_pressure;Samples;Min_cycle;Max_cycle;Signal;HPM_P1;HPM_P2
2022/10/08 00:01:50;;;;;;;8.40;2.85;;;;;;;11.19;100.00;101470.59;5254847;28;20121;-65
2022/10/08 00:04:21;;;;;;;11.48;2.85;;;;;;;11.32;100.00;101459.91;5255659;28;20048;-64
2022/10/08 00:06:53;;;;;;;13.93;2.97;;;;;;;11.22;100.00;101461.50;5257993;28;20025;-64
2022/10/08 00:09:24;;;;;;;9.93;3.15;;;;;;;11.23;100.00;101466.75;5256909;28;20048;-64
2022/10/08 00:11:56;;;;;;;11.13;2.80;;;;;;;11.20;100.00;101456.28;5256140;28;21243;-64
2022/10/08 00:14:27;;;;;;;11.18;2.58;;;;;;;11.21;100.00;101462.47;5260018;28;20059;-64
2022/10/08 00:16:59;;;;;;;10.10;2.63;;;;;;;11.22;100.00;101456.16;5256650;28;20410;-64
2022/10/08 00:19:30;;;;;;;9.40;2.65;;;;;;;11.28;100.00;101453.94;5254201;28;20384;-64
2022/10/08 00:22:01;;;;;;;8.05;2.13;;;;;;;11.24;100.00;101463.13;5256662;28;20060;-65
2022/10/08 00:24:34;;;;;;;10.80;2.72;;;;;;;11.28;100.00;101458.44;5261700;28;20051;-64
2022/10/08 00:27:05;;;;;;;11.73;2.70;;;;;;;11.32;100.00;101467.94;5254257;28;20025;-64
2022/10/08 00:29:37;;;;;;;9.57;2.85;;;;;;;11.36;100.00;101462.25;5256119;28;20975;-64
2022/10/08 00:32:08;;;;;;;8.77;2.97;;;;;;;11.42;100.00;101462.78;5258277;28;20025;-64
2022/10/08 00:34:40;;;;;;;12.65;3.22;;;;;;;11.41;100.00;101455.72;5261215;28;21507;-64
2022/10/08 00:37:14;;;;;;;11.30;3.30;;;;;;;11.47;100.00;101461.50;5260732;28;20395;-64
2022/10/08 00:39:45;;;;;;;11.75;2.85;;;;;;;11.45;100.00;101458.09;5268289;28;20039;-64
2022/10/08 00:42:17;;;;;;;11.00;2.85;;;;;;;11.49;100.00;101461.41;5262028;28;20470;-64
2022/10/08 00:44:57;;;;;;;12.95;3.00;;;;;;;11.50;100.00;101463.94;5262100;28;20028;-65
2022/10/08 00:47:31;;;;;;;14.27;2.80;;;;;;;11.54;100.00;101465.47;5266137;28;20565;-64
2022/10/08 00:50:23;;;;;;;10.50;2.85;;;;;;;11.58;100.00;101460.72;5261694;28;20040;-65
2022/10/08 00:52:58;;;;;;;10.45;2.80;;;;;;;11.60;100.00;101463.31;5262953;28;20100;-64
2022/10/08 00:55:30;;;;;;;;;;;;;;;11.65;100.00;101471.88;5272521;28;20066;-64
2022/10/08 00:58:09;;;;;;;12.30;3.10;;;;;;;11.64;100.00;101475.47;5260552;28;20555;-64
2022/10/08 01:00:40;;;;;;;12.07;2.58;;;;;;;11.66;100.00;101471.75;5255880;28;20020;-64
2022/10/08 01:03:12;;;;;;;11.75;2.38;;;;;;;11.67;100.00;101469.94;5260880;28;20021;-64
2022/10/08 01:05:46;;;;;;;10.20;2.90;;;;;;;11.68;100.00;101474.31;5264684;28;20417;-65
2022/10/08 01:08:23;;;;;;;8.45;2.85;;;;;;;11.71;100.00;101476.75;5270066;28;20039;-64
2022/10/08 01:11:15;;;;;;;10.98;2.92;;;;;;;11.75;100.00;101480.94;5255935;28;20063;-64
2022/10/08 01:13:55;;;;;;;14.77;2.80;;;;;;;11.77;100.00;101493.25;5256966;28;20613;-65
2022/10/08 01:16:37;;;;;;;12.38;3.60;;;;;;;11.78;100.00;101494.09;5261580;28;20108;-64
2022/10/08 01:19:25;;;;;;;16.88;3.17;;;;;;;11.76;100.00;101501.38;5261636;28;20033;-66
2022/10/08 01:22:12;;;;;;;11.05;2.83;;;;;;;11.76;100.00;101498.69;5257659;28;20122;-65
2022/10/08 01:27:45;;;;;;;9.38;3.00;;;;;;;11.68;100.00;101493.88;5265201;28;20041;-64
2022/10/08 01:30:18;;;;;;;12.48;3.88;;;;;;;11.63;100.00;101492.50;5255041;28;20032;-64
2022/10/08 01:32:58;;;;;;;12.60;3.35;;;;;;;11.59;100.00;101489.19;5250460;28;20493;-64
2022/10/08 01:35:33;;;;;;;9.93;3.00;;;;;;;11.54;100.00;101492.19;5256683;28;20033;-64
2022/10/08 01:38:06;;;;;;;13.95;2.78;;;;;;;11.53;100.00;101492.28;5256363;28;20036;-64
2022/10/08 01:40:40;;;;;;;12.23;3.00;;;;;;;11.47;100.00;101490.91;5260840;28;20029;-64
2022/10/08 01:43:16;;;;;;;9.00;3.22;;;;;;;11.43;100.00;101493.88;5269922;28;20036;-64
2022/10/08 01:45:53;;;;;;;10.25;2.85;;;;;;;11.45;100.00;101491.97;5262313;28;20570;-64
2022/10/08 01:48:29;;;;;;;10.15;2.90;;;;;;;11.40;100.00;101496.78;5259432;28;20127;-64
2022/10/08 01:51:12;;;;;;;9.48;3.53;;;;;;;11.42;100.00;101501.06;5259926;28;20028;-64
2022/10/08 01:53:47;;;;;;;9.48;2.78;;;;;;;11.37;100.00;101495.16;5261394;28;20076;-64
2022/10/08 01:56:23;;;;;;;9.85;3.30;;;;;;;11.36;100.00;101504.16;5261697;28;20024;-65
2022/10/08 01:59:13;;;;;;;9.85;2.83;;;;;;;11.36;100.00;101505.00;5258764;28;20037;-64
2022/10/08 02:02:06;;;;;;;10.88;2.75;;;;;;;11.34;100.00;101508.75;5258478;28;20036;-64
2022/10/08 02:04:38;;;;;;;7.47;2.88;;;;;;;11.31;100.00;101506.28;5259360;28;20486;-64
2022/10/08 02:07:13;;;;;;;8.60;2.75;;;;;;;11.28;100.00;101510.03;5258982;28;20063;-64
2022/10/08 02:10:00;;;;;;;7.65;3.03;;;;;;;11.40;100.00;101510.16;5258270;28;20032;-64
2022/10/08 02:12:31;;;;;;;7.38;2.30;;;;;;;11.27;100.00;101508.31;5259340;28;20052;-64
2022/10/08 02:15:04;;;;;;;8.50;2.53;;;;;;;11.21;100.00;101511.41;5264414;28;20119;-64
2022/10/08 02:17:47;;;;;;;9.35;2.20;;;;;;;11.22;100.00;101504.22;5258395;28;20590;-64
2022/10/08 02:20:27;;;;;;;7.78;2.25;;;;;;;11.19;100.00;101508.84;5260465;28;20667;-64
2022/10/08 02:23:02;;;;;;;12.48;2.63;;;;;;;11.21;100.00;101508.72;5256300;28;20040;-64
2022/10/08 02:25:45;;;;;;;11.05;2.75;;;;;;;11.20;100.00;101496.34;5253312;28;20036;-64
2022/10/08 02:28:55;;;;;;;10.48;2.50;;;;;;;11.17;100.00;101507.22;5257204;28;20032;-64
2022/10/08 02:31:39;;;;;;;9.90;2.63;;;;;;;11.19;100.00;101513.31;5251359;28;20551;-64
2022/10/08 02:34:14;;;;;;;;;;;;;;;11.21;100.00;101510.56;5267844;28;21060;-64
2022/10/08 02:36:54;;;;;;;7.20;1.80;;;;;;;11.10;100.00;101505.94;5262465;28;19920;-64
2022/10/08 02:39:29;;;;;;;8.32;1.92;;;;;;;11.06;100.00;101513.28;5261724;28;20068;-63
2022/10/08 02:42:05;;;;;;;8.52;2.08;;;;;;;11.00;100.00;101503.03;5261282;28;20046;-63
2022/10/08 02:44:48;;;;;;;6.85;2.25;;;;;;;10.96;100.00;101504.22;5255503;28;20085;-63
2022/10/08 02:47:24;;;;;;;6.70;2.08;;;;;;;11.04;100.00;101501.03;5268441;28;20032;-64
2022/10/08 02:50:01;;;;;;;6.75;2.05;;;;;;;10.93;100.00;101512.41;5254999;28;20044;-63
2022/10/08 02:52:38;;;;;;;5.60;1.70;;;;;;;10.88;100.00;101506.56;5258804;28;20040;-63
2022/10/08 02:55:43;;;;;;;8.77;2.65;;;;;;;10.88;100.00;101507.41;5256657;28;20479;-64
2022/10/08 02:58:15;;;;;;;10.23;2.88;;;;;;;10.93;100.00;101497.28;5256042;28;20020;-63
2022/10/08 03:00:54;;;;;;;8.80;1.92;;;;;;;10.87;100.00;101505.66;5258683;28;20245;-63
2022/10/08 03:03:34;;;;;;;8.80;2.38;;;;;;;10.92;100.00;101502.72;5254313;28;20051;-63
2022/10/08 03:06:09;;;;;;;6.88;2.60;;;;;;;10.95;100.00;101505.19;5254157;28;20028;-63
2022/10/08 03:08:45;;;;;;;6.60;2.15;;;;;;;10.86;100.00;101508.47;5250986;28;20463;-63
2022/10/08 03:11:17;;;;;;;7.93;2.28;;;;;;;10.80;100.00;101507.06;5254667;28;20044;-64
2022/10/08 03:13:50;;;;;;;9.93;2.50;;;;;;;10.79;100.00;101508.84;5252557;28;20025;-63
2022/10/08 03:16:25;;;;;;;9.52;2.75;;;;;;;10.77;100.00;101516.13;5252323;28;20031;-64
2022/10/08 03:19:00;;;;;;;6.28;2.10;;;;;;;10.81;100.00;101511.44;5258952;28;20096;-63
2022/10/08 03:21:32;;;;;;;8.77;1.83;;;;;;;10.87;100.00;101518.16;5259197;28;20029;-64
2022/10/08 03:24:05;;;;;;;8.45;2.05;;;;;;;10.78;100.00;101517.00;5261091;28;20483;-64
2022/10/08 03:26:37;;;;;;;5.70;1.80;;;;;;;10.83;100.00;101519.34;5254222;28;20486;-64
2022/10/08 03:29:08;;;;;;;6.05;1.92;;;;;;;10.78;100.00;101523.19;5259790;28;20055;-64
2022/10/08 03:31:40;;;;;;;6.85;2.30;;;;;;;10.86;100.00;101521.81;5257741;28;20143;-63
2022/10/08 03:34:11;;;;;;;7.43;2.30;;;;;;;10.87;100.00;101531.53;5257341;28;20025;-63
2022/10/08 03:36:42;;;;;;;6.50;2.10;;;;;;;10.84;100.00;101529.06;5257702;28;20029;-66
2022/10/08 03:39:14;;;;;;;8.30;2.15;;;;;;;10.83;100.00;101532.69;5254520;28;20455;-64
2022/10/08 03:41:45;;;;;;;7.85;2.20;;;;;;;10.79;100.00;101542.72;5256480;28;20381;-63
2022/10/08 03:44:16;;;;;;;7.60;2.17;;;;;;;10.79;100.00;101530.22;5262495;28;20024;-63
2022/10/08 03:46:47;;;;;;;5.95;2.22;;;;;;;10.74;100.00;101544.84;5253391;28;20036;-63
2022/10/08 03:49:19;;;;;;;9.40;2.65;;;;;;;10.71;100.00;101542.38;5250214;28;20440;-63
2022/10/08 03:51:50;;;;;;;6.38;2.30;;;;;;;10.66;100.00;101541.81;5256727;28;20108;-63
2022/10/08 03:54:21;;;;;;;9.90;2.40;;;;;;;10.70;100.00;101543.31;5250279;28;20620;-63
2022/10/08 03:56:53;;;;;;;8.88;2.20;;;;;;;10.60;100.00;101545.72;5251138;28;20044;-63
2022/10/08 03:59:24;;;;;;;8.57;3.45;;;;;;;10.61;100.00;101549.28;5255654;28;20342;-63
2022/10/08 04:01:55;;;;;;;9.75;2.63;;;;;;;10.56;100.00;101549.56;5258112;28;20029;-63
2022/10/08 04:04:26;;;;;;;10.38;2.47;;;;;;;10.50;100.00;101549.97;5251174;28;20032;-63
2022/10/08 04:06:58;;;;;;;7.10;2.60;;;;;;;10.41;100.00;101554.06;5249159;28;20059;-63
2022/10/08 04:09:29;;;;;;;6.35;2.60;;;;;;;10.40;100.00;101563.91;5246653;28;20141;-63
2022/10/08 04:12:00;;;;;;;9.50;3.28;;;;;;;10.36;100.00;101553.53;5252042;28;20116;-64
2022/10/08 04:14:31;;;;;;;10.23;3.28;;;;;;;10.37;100.00;101553.44;5249162;28;20118;-63
2022/10/08 04:17:03;;;;;;;7.20;3.53;;;;;;;10.37;100.00;101560.56;5251174;28;20044;-63
2022/10/08 04:19:34;;;;;;;9.25;3.83;;;;;;;10.36;100.00;101559.72;5252914;28;20033;-64
2022/10/08 04:22:05;;;;;;;8.40;4.07;;;;;;;10.40;100.00;101571.03;5253709;28;20512;-63
2022/10/08 04:24:36;;;;;;;11.05;6.57;;;;;;;10.42;100.00;101558.47;5256850;28;20045;-64
2022/10/08 04:27:08;;;;;;;13.52;7.45;;;;;;;10.42;100.00;101560.28;5247335;28;20024;-64
2022/10/08 04:29:39;;;;;;;14.90;9.25;;;;;;;10.43;100.00;101567.31;5258763;28;20028;-63
2022/10/08 04:32:10;;;;;;;14.30;9.60;;;;;;;10.44;100.00;101567.22;5254904;28;20029;-64
2022/10/08 04:34:42;;;;;;;21.42;12.38;;;;;;;10.44;100.00;101575.22;5255844;28;20036;-63
2022/10/08 04:37:13;;;;;;;20.08;13.52;;;;;;;10.47;100.00;101576.84;5253134;28;20021;-63
2022/10/08 04:39:44;;;;;;;24.60;15.18;;;;;;;10.48;100.00;101581.22;5254615;28;20028;-63
2022/10/08 04:42:15;;;;;;;28.58;17.67;;;;;;;10.51;100.00;101579.22;5255825;28;20029;-64
2022/10/08 04:44:47;;;;;;;31.85;18.67;;;;;;;10.54;100.00;101581.66;5258205;28;20029;-64
2022/10/08 04:47:18;;;;;;;37.92;21.73;;;;;;;10.56;100.00;101587.75;5255725;28;20108;-64
2022/10/08 04:49:49;;;;;;;33.75;21.77;;;;;;;10.58;100.00;101593.00;5259650;28;20032;-64
2022/10/08 04:52:20;;;;;;;41.17;23.25;;;;;;;10.62;100.00;101589.19;5262695;28;20995;-64
2022/10/08 04:54:52;;;;;;;41.28;23.75;;;;;;;10.64;100.00;101602.44;5260539;28;20029;-63
2022/10/08 04:57:23;;;;;;;40.38;24.90;;;;;;;10.66;100.00;101609.41;5257468;28;20039;-63
2022/10/08 04:59:55;;;;;;;40.88;25.00;;;;;;;10.66;100.00;101604.06;5254777;28;20068;-63
2022/10/08 05:02:26;;;;;;;44.65;25.80;;;;;;;10.66;100.00;101612.06;5254589;28;20394;-63
2022/10/08 05:04:58;;;;;;;41.80;25.85;;;;;;;10.69;100.00;101608.34;5254695;28;20428;-63
2022/10/08 05:07:29;;;;;;;51.42;28.42;;;;;;;10.72;100.00;101611.66;5256139;28;20424;-63
2022/10/08 05:10:00;;;;;;;50.20;28.75;;;;;;;10.79;100.00;101620.13;5252360;28;20873;-63
2022/10/08 05:12:32;;;;;;;51.38;28.80;;;;;;;10.75;100.00;101618.59;5260031;28;20036;-63
2022/10/08 05:15:03;;;;;;;49.53;28.30;;;;;;;10.72;100.00;101619.69;5259742;28;20054;-63
2022/10/08 05:17:35;;;;;;;55.03;30.17;;;;;;;10.76;100.00;101623.00;5253630;28;20033;-63
2022/10/08 05:20:06;;;;;;;53.53;31.10;;;;;;;10.78;100.00;101616.59;5257647;28;20036;-63
2022/10/08 05:22:38;;;;;;;53.85;31.05;;;;;;;10.80;100.00;101619.19;5271219;28;20032;-63
2022/10/08 05:25:09;;;;;;;52.25;31.75;;;;;;;10.77;100.00;101625.56;5272827;28;20028;-63
2022/10/08 05:27:40;;;;;;;62.63;31.88;;;;;;;10.76;100.00;101629.19;5276586;28;20047;-64
2022/10/08 05:30:12;;;;;;;56.40;31.02;;;;;;;10.74;100.00;101624.91;5262258;28;20063;-63
2022/10/08 05:32:43;;;;;;;53.63;31.73;;;;;;;10.71;100.00;101625.94;5272389;28;20013;-63
2022/10/08 05:35:14;;;;;;;54.47;31.40;;;;;;;10.73;100.00;101624.03;5267131;28;20199;-63
2022/10/08 05:37:46;;;;;;;56.33;32.03;;;;;;;10.73;100.00;101628.53;5260970;28;20031;-64
2022/10/08 05:40:17;;;;;;;55.05;31.85;;;;;;;10.72;100.00;101633.03;5270675;28;20478;-64
2022/10/08 05:42:48;;;;;;;58.95;31.55;;;;;;;10.72;100.00;101638.34;5265448;28;20036;-63
2022/10/08 05:45:20;;;;;;;58.85;32.15;;;;;;;10.71;100.00;101641.97;5265945;28;20615;-63
2022/10/08 05:47:51;;;;;;;57.03;32.00;;;;;;;10.69;100.00;101640.38;5263578;28;20098;-64
2022/10/08 05:50:22;;;;;;;56.88;30.50;;;;;;;10.68;100.00;101647.53;5270454;28;20128;-64
2022/10/08 05:52:53;;;;;;;63.80;33.22;;;;;;;10.70;100.00;101656.28;5269966;28;20398;-64
2022/10/08 05:55:26;;;;;;;59.42;31.75;;;;;;;10.69;100.00;101654.56;5272589;28;20522;-64
2022/10/08 05:57:57;;;;;;;58.63;32.78;;;;;;;10.67;100.00;101667.16;5268664;28;20041;-63
2022/10/08 06:00:28;;;;;;;64.18;33.70;;;;;;;10.67;100.00;101666.28;5256378;28;20070;-63
2022/10/08 06:03:00;;;;;;;62.38;32.53;;;;;;;10.65;100.00;101666.38;5250389;28;20052;-64
2022/10/08 06:05:31;;;;;;;64.10;32.25;;;;;;;10.59;100.00;101666.78;5253957;28;20029;-63
2022/10/08 06:08:02;;;;;;;55.90;31.80;;;;;;;10.57;100.00;101676.69;5260047;28;20028;-63
2022/10/08 06:10:33;;;;;;;60.05;30.65;;;;;;;10.61;100.00;101677.38;5261882;28;20025;-63
2022/10/08 06:13:05;;;;;;;58.65;31.08;;;;;;;10.55;100.00;101683.94;5263215;28;20530;-63
2022/10/08 06:15:36;;;;;;;54.70;31.08;;;;;;;10.54;100.00;101683.06;5261378;28;20604;-63
2022/10/08 06:18:07;;;;;;;55.88;31.15;;;;;;;10.52;100.00;101687.66;5261600;28;20554;-64
2022/10/08 06:20:38;;;;;;;57.53;31.35;;;;;;;10.51;100.00;101698.44;5258069;28;20119;-64
2022/10/08 06:23:10;;;;;;;57.30;30.65;;;;;;;10.51;100.00;101701.97;5263558;28;20033;-64
2022/10/08 06:25:41;;;;;;;50.20;29.27;;;;;;;10.51;100.00;101703.78;5260125;28;20032;-63
2022/10/08 06:28:12;;;;;;;59.33;30.95;;;;;;;10.50;100.00;101712.72;5263714;28;20028;-63
2022/10/08 06:30:43;;;;;;;54.42;31.75;;;;;;;10.48;100.00;101703.97;5260558;28;20078;-63
2022/10/08 06:33:15;;;;;;;58.78;30.75;;;;;;;10.43;100.00;101708.72;5258318;28;20385;-64
2022/10/08 06:35:47;;;;;;;52.65;30.33;;;;;;;10.45;100.00;101710.34;5262091;28;20473;-63
2022/10/08 06:38:18;;;;;;;57.28;32.75;;;;;;;10.46;100.00;101717.38;5259362;28;20039;-63
2022/10/08 06:40:49;;;;;;;54.10;30.38;;;;;;;10.46;100.00;101722.72;5255489;28;20139;-63
2022/10/08 06:43:20;;;;;;;52.42;28.70;;;;;;;10.54;100.00;101728.44;5261945;28;20051;-63
2022/10/08 06:45:52;;;;;;;52.50;29.35;;;;;;;10.51;100.00;101730.47;5257902;28;20082;-63
2022/10/08 06:48:23;;;;;;;51.08;28.90;;;;;;;10.47;100.00;101744.91;5262984;28;20116;-63
2022/10/08 06:50:59;;;;;;;50.85;29.85;;;;;;;10.50;100.00;101744.75;5266339;28;20506;-63
2022/10/08 06:53:33;;;;;;;54.22;28.88;;;;;;;10.51;100.00;101749.13;5258322;28;20036;-63
2022/10/08 06:56:07;;;;;;;50.80;29.63;;;;;;;10.55;100.00;101753.31;5257650;28;20483;-63
2022/10/08 06:58:38;;;;;;;54.75;29.42;;;;;;;10.54;100.00;101752.44;5257444;28;20050;-63
2022/10/08 07:01:19;;;;;;;52.80;29.30;;;;;;;10.58;100.00;101764.69;5257098;28;20038;-63
2022/10/08 07:03:56;;;;;;;53.08;28.77;;;;;;;10.64;100.00;101768.75;5261676;28;20028;-63
2022/10/08 07:06:28;;;;;;;49.38;26.58;;;;;;;10.66;100.00;101782.88;5268173;28;20020;-64
2022/10/08 07:09:00;;;;;;;47.97;26.48;;;;;;;10.64;100.00;101774.09;5270980;28;20818;-64
2022/10/08 07:11:33;;;;;;;51.08;26.65;;;;;;;10.63;100.00;101785.72;5255604;28;20512;-64
2022/10/08 07:14:05;;;;;;;45.83;24.00;;;;;;;10.65;100.00;101794.50;5262565;28;20016;-63
2022/10/08 07:16:36;;;;;;;46.63;24.23;;;;;;;10.66;100.00;101787.34;5259390;28;20390;-63
2022/10/08 07:19:07;;;;;;;40.40;22.48;;;;;;;10.65;100.00;101794.50;5264214;28;20036;-63
2022/10/08 07:21:39;;;;;;;34.97;21.00;;;;;;;10.65;100.00;101798.97;5265253;28;20028;-63
2022/10/08 07:24:10;;;;;;;35.83;20.88;;;;;;;10.62;100.00;101802.69;5262534;28;20457;-63
2022/10/08 07:26:42;;;;;;;32.05;20.38;;;;;;;10.65;100.00;101805.16;5258444;28;20040;-63
2022/10/08 07:29:14;;;;;;;31.95;19.70;;;;;;;10.65;100.00;101807.84;5263170;28;20020;-63
2022/10/08 07:31:45;;;;;;;30.08;19.45;;;;;;;10.64;100.00;101811.44;5256708;28;20796;-63
2022/10/08 07:34:16;;;;;;;30.17;17.55;;;;;;;10.63;100.00;101820.41;5259595;28;20029;-63
2022/10/08 07:36:48;;;;;;;27.27;16.85;;;;;;;10.65;100.00;101818.50;5256445;28;20123;-63
2022/10/08 07:39:19;;;;;;;29.95;16.75;;;;;;;10.67;100.00;101826.44;5259771;28;20047;-63
2022/10/08 07:41:50;;;;;;;24.50;14.73;;;;;;;10.68;100.00;101826.34;5258484;28;20032;-63
2022/10/08 07:44:22;;;;;;;28.45;14.68;;;;;;;10.72;100.00;101833.22;5239492;28;20036;-63
2022/10/08 07:46:53;;;;;;;23.75;13.02;;;;;;;10.72;100.00;101830.53;5255240;28;20035;-63
2022/10/08 07:49:25;;;;;;;22.75;13.57;;;;;;;10.75;100.00;101841.00;5258076;28;20041;-63
2022/10/08 07:51:56;;;;;;;21.17;11.50;;;;;;;10.75;100.00;101841.00;5252717;28;20032;-63
2022/10/08 07:54:27;;;;;;;20.23;9.63;;;;;;;10.82;100.00;101843.31;5261415;28;20056;-63
2022/10/08 07:57:00;;;;;;;18.60;9.23;;;;;;;10.85;100.00;101843.97;5264745;28;20024;-63
2022/10/08 07:59:32;;;;;;;15.68;8.25;;;;;;;10.88;100.00;101841.13;5263130;28;20518;-64
2022/10/08 08:02:03;;;;;;;15.05;8.35;;;;;;;10.92;100.00;101845.31;5265819;28;20075;-63
2022/10/08 08:04:34;;;;;;;17.40;9.80;;;;;;;10.95;100.00;101854.97;5264824;28;20071;-63
2022/10/08 08:07:06;;;;;;;13.73;6.13;;;;;;;10.96;100.00;101849.50;5265363;28;20051;-63
2022/10/08 08:09:38;;;;;;;13.98;6.15;;;;;;;11.00;100.00;101863.53;5263948;28;20158;-63
2022/10/08 08:12:09;;;;;;;13.32;4.68;;;;;;;11.01;100.00;101861.72;5266109;28;20115;-63
2022/10/08 08:14:40;;;;;;;12.32;5.85;;;;;;;11.00;100.00;101863.53;5263416;28;20465;-63
2022/10/08 08:17:12;;;;;;;12.80;5.28;;;;;;;11.04;100.00;101846.34;5260530;28;20060;-63
2022/10/08 08:19:43;;;;;;;10.98;4.55;;;;;;;11.13;100.00;101874.31;5262190;28;20032;-64
2022/10/08 08:22:14;;;;;;;14.23;5.18;;;;;;;11.11;100.00;101874.41;5242384;28;20699;-63
2022/10/08 08:24:45;;;;;;;12.35;5.00;;;;;;;11.17;100.00;101870.50;5268049;28;20031;-64
2022/10/08 08:27:17;;;;;;;11.63;4.28;;;;;;;11.25;100.00;101883.38;5270485;28;20066;-63
2022/10/08 08:29:48;;;;;;;11.93;4.80;;;;;;;11.30;100.00;101890.16;5270964;28;20517;-63
2022/10/08 08:32:20;;;;;;;13.60;5.10;;;;;;;11.33;100.00;101892.63;5272324;28;20032;-63
2022/10/08 08:34:51;;;;;;;11.73;4.75;;;;;;;11.34;100.00;101894.34;5263996;28;20033;-63
2022/10/08 08:37:22;;;;;;;10.75;4.63;;;;;;;11.38;100.00;101900.34;5256890;28;20033;-63
2022/10/08 08:39:54;;;;;;;12.15;4.00;;;;;;;11.47;100.00;101907.78;5265421;28;20024;-63
2022/10/08 08:42:40;;;;;;;14.05;4.30;;;;;;;11.54;100.00;101908.25;5244084;28;20034;-63
2022/10/08 08:45:21;;;;;;;10.55;3.80;;;;;;;11.58;100.00;101905.31;5262593;28;20042;-63
2022/10/08 08:48:32;;;;;;;10.38;3.58;;;;;;;11.64;100.00;101916.53;5264671;28;20025;-63
2022/10/08 08:51:04;;;;;;;10.07;3.42;;;;;;;11.65;100.00;101918.28;5264640;28;20482;-63
2022/10/08 08:53:35;;;;;;;9.30;2.95;;;;;;;11.73;100.00;101921.31;5262278;28;20048;-63
2022/10/08 08:56:11;;;;;;;9.48;2.92;;;;;;;11.81;100.00;101921.66;5265387;28;20036;-64
2022/10/08 08:58:59;;;;;;;11.10;2.28;;;;;;;11.89;100.00;101927.44;5262461;28;20040;-63
2022/10/08 09:01:35;;;;;;;11.40;2.33;;;;;;;11.97;100.00;101926.94;5273892;28;20036;-63
2022/10/08 09:04:32;;;;;;;8.10;2.15;;;;;;;12.00;100.00;101929.38;5267156;28;20873;-64
2022/10/08 09:07:10;;;;;;;8.75;2.60;;;;;;;12.03;100.00;101925.66;5266397;28;20356;-63
2022/10/08 09:09:46;;;;;;;7.80;1.75;;;;;;;12.12;100.00;101925.06;5269507;28;20108;-63
2022/10/08 09:12:35;;;;;;;7.88;2.25;;;;;;;12.18;100.00;101939.84;5266847;28;20041;-63
2022/10/08 09:15:29;;;;;;;6.95;1.33;;;;;;;12.28;100.00;101939.13;5270723;28;20059;-64
2022/10/08 09:18:02;;;;;;;7.35;1.20;;;;;;;12.27;100.00;101939.22;5263375;28;20036;-63
2022/10/08 09:20:34;;;;;;;9.50;1.88;;;;;;;12.29;100.00;101938.19;5270939;28;20028;-63
2022/10/08 09:23:19;;;;;;;6.75;1.35;;;;;;;12.30;100.00;101944.41;5269739;28;20025;-63
2022/10/08 09:26:14;;;;;;;9.18;1.50;;;;;;;12.39;100.00;101956.28;5268439;28;20039;-63
2022/10/08 09:28:53;;;;;;;5.90;1.40;;;;;;;12.41;100.00;101959.75;5276245;28;20091;-64
2022/10/08 09:31:37;;;;;;;6.20;1.20;;;;;;;12.52;100.00;101967.91;5266002;28;20029;-64
2022/10/08 09:34:17;;;;;;;7.53;1.40;;;;;;;12.62;100.00;101960.09;5267193;28;20031;-63
2022/10/08 09:37:00;;;;;;;6.78;1.30;;;;;;;12.70;100.00;101980.06;5261420;28;20386;-64
2022/10/08 09:39:36;;;;;;;8.98;1.50;;;;;;;12.70;100.00;101977.38;5268876;28;20040;-64
2022/10/08 09:42:07;;;;;;;8.68;1.75;;;;;;;12.78;100.00;101974.19;5275718;28;20109;-64
2022/10/08 09:44:44;;;;;;;3.92;1.10;;;;;;;12.88;100.00;101979.78;5264681;28;20036;-64
2022/10/08 09:47:18;;;;;;;5.43;1.10;;;;;;;12.99;100.00;101984.41;5266640;28;20034;-64
2022/10/08 09:50:18;;;;;;;8.23;1.60;;;;;;;13.03;100.00;101981.41;5271737;28;20104;-64
2022/10/08 09:52:54;;;;;;;7.35;1.77;;;;;;;13.05;100.00;102000.91;5273120;28;20067;-64
2022/10/08 09:55:31;;;;;;;7.97;1.40;;;;;;;13.10;100.00;102001.47;5266817;28;20391;-63
2022/10/08 09:58:03;;;;;;;6.45;1.58;;;;;;;13.22;100.00;102001.59;5267649;28;20481;-64
2022/10/08 10:00:36;;;;;;;8.20;1.00;;;;;;;13.30;100.00;102000.09;5261999;28;20023;-63
2022/10/08 10:03:16;;;;;;;5.93;1.20;;;;;;;13.31;100.00;102009.03;5275329;28;20032;-64
2022/10/08 10:05:52;;;;;;;7.72;1.15;;;;;;;13.36;97.89;101997.97;5269088;28;20063;-64
2022/10/08 10:08:45;;;;;;;3.22;0.77;;;;;;;13.39;96.90;102003.97;5264876;28;20032;-64
2022/10/08 10:11:23;;;;;;;6.60;1.13;;;;;;;13.41;95.13;101995.84;5272921;28;20028;-64
2022/10/08 10:13:56;;;;;;;6.43;1.23;;;;;;;13.43;95.16;102021.56;5264722;28;20386;-64
2022/10/08 10:16:35;;;;;;;7.75;1.00;;;;;;;13.48;93.36;102014.06;5276381;28;20413;-64
2022/10/08 10:19:23;;;;;;;6.88;1.17;;;;;;;13.46;96.82;102005.28;5264857;28;20025;-64
2022/10/08 10:22:17;;;;;;;8.20;1.00;;;;;;;13.53;97.29;102009.22;5264250;28;20034;-64
2022/10/08 10:24:55;;;;;;;6.50;0.90;;;;;;;13.61;93.01;102010.50;5263972;28;20025;-64
2022/10/08 10:27:33;;;;;;;6.45;0.90;;;;;;;13.58;91.48;102014.28;5261671;28;20078;-64
2022/10/08 10:30:21;;;;;;;5.28;0.90;;;;;;;13.66;89.75;102013.72;5260720;28;20098;-64
2022/10/08 10:32:59;;;;;;;6.65;1.30;;;;;;;13.66;90.00;102025.31;5270494;28;20021;-64
2022/10/08 10:35:31;;;;;;;7.75;0.90;;;;;;;13.61;88.58;102024.75;5267256;28;20020;-64
2022/10/08 10:38:12;;;;;;;5.00;1.00;;;;;;;13.60;90.58;102017.69;5266814;28;20643;-64
2022/10/08 10:41:18;;;;;;;6.25;1.23;;;;;;;13.74;89.41;102016.72;5257894;28;20043;-64
2022/10/08 10:43:53;;;;;;;7.30;1.00;;;;;;;13.86;89.96;102023.03;5257680;28;20476;-64
2022/10/08 10:46:35;;;;;;;6.18;1.25;;;;;;;14.00;91.14;102017.53;5261190;28;20047;-64
2022/10/08 10:49:17;;;;;;;7.30;1.20;;;;;;;14.03;87.66;102011.94;5260008;28;20093;-64
2022/10/08 10:52:32;;;;;;;5.10;1.17;;;;;;;14.11;87.73;102022.09;5272497;28;20024;-65
2022/10/08 10:55:28;;;;;;;7.82;2.38;;;;;;;14.19;88.64;102024.22;5259764;28;20071;-64
2022/10/08 10:58:18;;;;;;;7.00;1.40;;;;;;;14.14;85.43;102029.09;5260601;28;20124;-64
2022/10/08 11:01:02;;;;;;;6.70;1.10;;;;;;;14.19;84.47;102018.88;5262868;28;20474;-64
2022/10/08 11:03:49;;;;;;;5.25;1.02;;;;;;;14.20;84.86;102021.44;5262394;28;20028;-64
2022/10/08 11:06:37;;;;;;;7.18;0.93;;;;;;;14.22;83.62;102022.19;5260050;28;20091;-64
2022/10/08 11:09:24;;;;;;;3.85;0.93;;;;;;;14.35;86.10;102026.66;5262766;28;20140;-64
2022/10/08 11:12:24;;;;;;;4.97;1.00;;;;;;;14.36;84.75;102034.59;5263374;28;20106;-64
2022/10/08 11:15:01;;;;;;;5.38;0.90;;;;;;;14.25;78.83;102039.91;5261116;28;20044;-64
2022/10/08 11:18:09;;;;;;;4.50;1.02;;;;;;;14.15;81.10;102038.84;5260570;28;20112;-64
2022/10/08 11:21:12;;;;;;;3.88;0.85;;;;;;;14.08;80.06;102039.31;5256783;28;20062;-64
2022/10/08 11:23:56;;;;;;;5.38;1.10;;;;;;;14.06;78.88;102037.72;5260072;28;20043;-64
2022/10/08 11:26:32;;;;;;;6.65;0.93;;;;;;;14.08;78.85;102043.81;5262390;28;20484;-64
2022/10/08 11:29:25;;;;;;;5.57;1.05;;;;;;;14.03;80.14;102040.59;5271284;28;20112;-64
2022/10/08 11:31:57;;;;;;;7.25;1.20;;;;;;;13.89;82.54;102045.13;5262647;28;20086;-64
2022/10/08 11:34:34;;;;;;;7.07;1.45;;;;;;;13.82;83.07;102051.03;5262804;28;20361;-64
2022/10/08 11:37:22;;;;;;;7.53;1.20;;;;;;;13.75;82.93;102056.00;5258666;28;20028;-64
2022/10/08 11:40:13;;;;;;;5.63;1.00;;;;;;;13.67;84.50;102061.03;5261501;28;20039;-64
2022/10/08 11:43:02;;;;;;;6.15;1.00;;;;;;;13.57;85.13;102060.81;5261356;28;20033;-64
2022/10/08 11:45:43;;;;;;;7.47;1.25;;;;;;;13.64;80.06;102056.75;5258038;28;20070;-65
2022/10/08 11:48:30;;;;;;;4.75;0.88;;;;;;;13.64;81.65;102061.25;5258260;28;20409;-64
2022/10/08 11:51:19;;;;;;;6.45;0.90;;;;;;;13.77;81.11;102062.09;5244398;28;20498;-65
2022/10/08 11:54:08;;;;;;;5.97;1.25;;;;;;;13.87;83.76;102057.78;5258950;28;20060;-65
2022/10/08 11:56:48;;;;;;;8.40;1.13;;;;;;;13.99;81.67;102041.78;5259373;28;20063;-65